Time;durP1;ratioP1;P1;durP2;ratioP2;P2;SDS_P1;SDS_P2;PMS_P1;PMS_P2;Temp;Humidity;BMP_temperature;BMP_pressure;BME280_temperature;BME280_humidity;BME280_pressure;Samples;Min_cycle;Max_cycle;Signal;HPM_P1;HPM_P2
2022/03/30 00:01:35;;;;;;;14.17;7.80;;;12.50;99.90;;;;;;4933091;29;20221;-73
2022/03/30 00:04:02;;;;;;;13.20;7.90;;;12.60;99.90;;;;;;4932179;29;20205;-74
2022/03/30 00:06:28;;;;;;;15.10;8.20;;;12.60;99.90;;;;;;4915144;29;20236;-69
2022/03/30 00:08:55;;;;;;;14.70;7.97;;;12.60;99.90;;;;;;4931716;29;20219;-69
2022/03/30 00:11:22;;;;;;;16.17;8.23;;;12.60;99.90;;;;;;4929105;29;20225;-70
2022/03/30 00:13:49;;;;;;;16.20;8.33;;;12.60;99.90;;;;;;4931021;29;20212;-69
2022/03/30 00:16:16;;;;;;;14.27;8.07;;;12.50;99.90;;;;;;4931633;29;20223;-70
2022/03/30 00:18:43;;;;;;;13.57;7.23;;;12.50;99.90;;;;;;4932948;29;20205;-71
2022/03/30 00:21:09;;;;;;;17.23;8.17;;;12.60;99.90;;;;;;4930755;29;20198;-70
2022/03/30 00:23:36;;;;;;;13.10;7.33;;;12.60;99.90;;;;;;4932125;29;20232;-70
2022/03/30 00:26:03;;;;;;;15.40;8.60;;;12.40;99.90;;;;;;4931232;29;20228;-70
2022/03/30 00:28:29;;;;;;;14.20;8.10;;;12.40;99.90;;;;;;4933102;29;20330;-72
2022/03/30 00:30:57;;;;;;;14.17;7.63;;;12.50;99.90;;;;;;4928433;29;20195;-72
2022/03/30 00:33:24;;;;;;;13.87;7.77;;;12.40;99.90;;;;;;4928315;29;20204;-75
2022/03/30 00:35:51;;;;;;;16.03;8.07;;;12.40;99.90;;;;;;4932223;28;20229;-77
2022/03/30 00:38:18;;;;;;;13.60;7.80;;;12.30;99.90;;;;;;4934740;29;20213;-77
2022/03/30 00:40:45;;;;;;;13.17;8.00;;;12.30;99.90;;;;;;4929510;29;20211;-76
2022/03/30 00:43:12;;;;;;;12.60;7.97;;;12.30;99.90;;;;;;4923967;29;20322;-75
2022/03/30 00:45:39;;;;;;;13.77;7.70;;;12.30;99.90;;;;;;4927090;29;20651;-73
2022/03/30 00:48:06;;;;;;;15.47;8.07;;;12.30;99.90;;;;;;4927971;29;20235;-74
2022/03/30 00:50:33;;;;;;;14.87;8.30;;;12.30;99.90;;;;;;4931283;29;20566;-72
2022/03/30 00:53:00;;;;;;;15.60;8.40;;;12.10;99.90;;;;;;4926284;29;20206;-71
2022/03/30 00:55:27;;;;;;;13.53;7.83;;;12.10;99.90;;;;;;4915207;29;20232;-70
2022/03/30 00:57:55;;;;;;;14.67;8.33;;;12.00;99.90;;;;;;4932867;29;20213;-70
2022/03/30 01:00:22;;;;;;;13.97;8.50;;;11.80;99.90;;;;;;4931551;29;20683;-72
2022/03/30 01:02:50;;;;;;;18.30;8.07;;;11.70;99.90;;;;;;4926747;29;20220;-71
2022/03/30 01:05:17;;;;;;;15.53;8.37;;;11.90;99.90;;;;;;4931856;29;20236;-71
2022/03/30 01:07:44;;;;;;;16.07;9.27;;;11.80;99.90;;;;;;4930426;29;20211;-74
2022/03/30 01:10:13;;;;;;;14.27;8.70;;;11.80;99.90;;;;;;4931285;29;20207;-72
2022/03/30 01:12:41;;;;;;;14.47;8.90;;;11.80;99.90;;;;;;4929644;29;20200;-76
2022/03/30 01:15:09;;;;;;;21.37;10.23;;;11.80;99.90;;;;;;4924705;29;20206;-77
2022/03/30 01:17:37;;;;;;;19.40;10.83;;;11.80;99.90;;;;;;4926969;29;20681;-77
2022/03/30 01:20:08;;;;;;;17.67;10.07;;;11.70;99.90;;;;;;4925098;29;20208;-75
2022/03/30 01:22:35;;;;;;;17.47;10.87;;;11.70;99.90;;;;;;4908745;29;20722;-76
2022/03/30 01:25:03;;;;;;;19.40;10.93;;;11.60;99.90;;;;;;4923818;29;20195;-75
2022/03/30 01:27:30;;;;;;;25.07;11.17;;;11.40;99.90;;;;;;4924342;29;20195;-75
2022/03/30 01:32:43;;;;;;;22.10;11.87;;;11.20;99.90;;;;;;4930674;29;20222;-72
2022/03/30 01:35:10;;;;;;;20.57;11.10;;;11.10;99.90;;;;;;4930566;29;20211;-71
2022/03/30 01:37:37;;;;;;;25.97;12.93;;;11.10;99.90;;;;;;4928979;29;20206;-76
2022/03/30 01:40:06;;;;;;;20.90;11.50;;;11.00;99.90;;;;;;4927464;29;20199;-70
2022/03/30 01:42:33;;;;;;;28.47;13.30;;;10.90;99.90;;;;;;4924503;29;20306;-77
2022/03/30 01:45:01;;;;;;;23.03;12.63;;;10.80;99.90;;;;;;4921957;29;20203;-76
2022/03/30 01:47:28;;;;;;;22.97;12.23;;;10.60;99.90;;;;;;4921581;29;20195;-77
2022/03/30 01:49:54;;;;;;;24.17;13.27;;;10.60;99.90;;;;;;4931977;29;20213;-76
2022/03/30 01:52:22;;;;;;;25.17;13.17;;;10.50;99.90;;;;;;4930439;29;20206;-74
2022/03/30 01:54:48;;;;;;;23.17;12.63;;;10.40;99.90;;;;;;4930385;29;20222;-71
2022/03/30 01:57:15;;;;;;;26.67;13.43;;;10.30;99.90;;;;;;4920610;29;20230;-71
2022/03/30 01:59:44;;;;;;;26.87;13.03;;;10.20;99.90;;;;;;4926821;29;20203;-70
2022/03/30 02:02:12;;;;;;;24.50;13.73;;;10.10;99.90;;;;;;4927846;29;20226;-70
2022/03/30 02:04:39;;;;;;;25.33;12.87;;;10.20;99.90;;;;;;4920975;29;20195;-70
2022/03/30 02:07:10;;;;;;;24.70;12.80;;;10.20;99.90;;;;;;4918259;29;20554;-70
2022/03/30 02:09:37;;;;;;;25.27;13.70;;;10.20;99.90;;;;;;4925561;29;20203;-70
2022/03/30 02:12:05;;;;;;;26.60;14.20;;;10.30;99.90;;;;;;4925902;29;20302;-70
2022/03/30 02:14:33;;;;;;;26.20;13.50;;;10.40;99.90;;;;;;4921472;29;20190;-69
2022/03/30 02:17:00;;;;;;;24.43;13.60;;;10.50;99.90;;;;;;4925169;29;20218;-70
2022/03/30 02:19:27;;;;;;;26.23;13.77;;;10.50;99.90;;;;;;4922833;29;20236;-69
2022/03/30 02:21:53;;;;;;;28.03;13.60;;;10.50;99.90;;;;;;4918604;29;20199;-70
2022/03/30 02:24:20;;;;;;;31.67;13.77;;;10.40;99.90;;;;;;4929187;29;20281;-70
2022/03/30 02:26:47;;;;;;;26.73;13.13;;;10.30;99.90;;;;;;4923225;29;20219;-72
2022/03/30 02:29:14;;;;;;;26.00;13.80;;;10.10;99.90;;;;;;4928471;29;20708;-77
2022/03/30 02:31:44;;;;;;;28.00;14.73;;;10.10;99.90;;;;;;4919599;29;20625;-76
2022/03/30 02:34:11;;;;;;;27.03;14.10;;;10.20;99.90;;;;;;4926067;29;20219;-74
2022/03/30 02:36:38;;;;;;;25.60;14.37;;;10.30;99.90;;;;;;4929947;29;20215;-71
2022/03/30 02:39:05;;;;;;;25.10;14.10;;;10.30;99.90;;;;;;4930516;29;20206;-71
2022/03/30 02:41:32;;;;;;;28.77;14.40;;;10.30;99.90;;;;;;4924445;29;20650;-71
2022/03/30 02:43:58;;;;;;;25.10;13.37;;;10.40;99.90;;;;;;4933401;29;20229;-71
2022/03/30 02:46:25;;;;;;;27.47;13.43;;;10.40;99.90;;;;;;4927807;29;20239;-71
2022/03/30 02:48:52;;;;;;;27.17;14.50;;;10.40;99.90;;;;;;4929645;29;20657;-71
2022/03/30 02:51:18;;;;;;;24.70;14.33;;;10.40;99.90;;;;;;4934769;29;20634;-69
2022/03/30 02:53:45;;;;;;;27.33;14.63;;;10.40;99.90;;;;;;4923918;29;20203;-70
2022/03/30 02:56:12;;;;;;;31.33;14.60;;;10.40;99.90;;;;;;4922335;29;20227;-69
2022/03/30 02:58:39;;;;;;;31.47;14.77;;;10.40;99.90;;;;;;4935106;29;20206;-69
2022/03/30 03:01:05;;;;;;;26.90;14.23;;;10.40;99.90;;;;;;4926739;29;20613;-70
2022/03/30 03:03:32;;;;;;;30.80;15.17;;;10.30;99.90;;;;;;4922998;29;20221;-71
2022/03/30 03:05:59;;;;;;;28.53;14.77;;;10.30;99.90;;;;;;4933867;29;20217;-70
2022/03/30 03:08:26;;;;;;;27.63;14.97;;;10.30;99.90;;;;;;4926615;29;20240;-71
2022/03/30 03:10:52;;;;;;;30.73;15.07;;;10.20;99.90;;;;;;4924367;29;20219;-71
2022/03/30 03:13:20;;;;;;;28.20;15.00;;;10.20;99.90;;;;;;4923764;29;20228;-71
2022/03/30 03:15:47;;;;;;;28.67;15.27;;;10.10;99.90;;;;;;4928777;29;20234;-71
2022/03/30 03:18:18;;;;;;;30.40;14.90;;;10.10;99.90;;;;;;4934219;29;20215;-69
2022/03/30 03:20:47;;;;;;;30.93;15.43;;;10.10;99.90;;;;;;4921644;29;20211;-69
2022/03/30 03:23:15;;;;;;;29.70;14.93;;;10.00;99.90;;;;;;4926709;29;20226;-69
2022/03/30 03:25:44;;;;;;;30.63;14.60;;;9.90;99.90;;;;;;4928910;29;20225;-69
2022/03/30 03:28:13;;;;;;;33.43;15.80;;;9.90;99.90;;;;;;4911576;29;20285;-69
2022/03/30 03:30:41;;;;;;;32.87;15.20;;;9.80;99.90;;;;;;4930164;29;20196;-69
2022/03/30 03:33:09;;;;;;;34.73;16.50;;;9.80;99.90;;;;;;4926099;29;20218;-69
2022/03/30 03:35:36;;;;;;;33.13;15.90;;;9.80;99.90;;;;;;4927553;29;20719;-69
2022/03/30 03:38:04;;;;;;;30.00;15.60;;;9.80;99.90;;;;;;4927628;29;20432;-69
2022/03/30 03:40:31;;;;;;;35.13;16.27;;;9.90;99.90;;;;;;4927428;29;20204;-69
2022/03/30 03:43:03;;;;;;;28.93;15.70;;;9.90;99.90;;;;;;4927936;29;20221;-70
2022/03/30 03:45:31;;;;;;;32.83;17.43;;;9.80;99.90;;;;;;4929859;29;20221;-70
2022/03/30 03:47:59;;;;;;;33.97;16.67;;;9.80;99.90;;;;;;4932794;29;20208;-69
2022/03/30 03:50:28;;;;;;;35.40;15.97;;;9.80;99.90;;;;;;4933622;29;20213;-70
2022/03/30 03:52:54;;;;;;;32.07;16.87;;;9.80;99.90;;;;;;4933243;29;20237;-70
2022/03/30 03:55:21;;;;;;;34.23;16.33;;;9.70;99.90;;;;;;4929768;29;20233;-70
2022/03/30 03:57:48;;;;;;;33.43;16.70;;;9.70;99.90;;;;;;4929659;29;20204;-69
2022/03/30 04:00:15;;;;;;;33.70;16.53;;;9.70;99.90;;;;;;4931503;29;20213;-70
2022/03/30 04:02:42;;;;;;;35.80;16.57;;;9.60;99.90;;;;;;4931607;29;20237;-70
2022/03/30 04:05:10;;;;;;;34.53;16.23;;;9.70;99.90;;;;;;4930814;29;20699;-70
2022/03/30 04:07:40;;;;;;;31.83;15.77;;;9.70;99.90;;;;;;4925767;29;20203;-70
2022/03/30 04:10:08;;;;;;;34.50;17.07;;;9.70;99.90;;;;;;4929964;29;20231;-69
2022/03/30 04:12:35;;;;;;;35.87;17.93;;;9.80;99.90;;;;;;4924516;29;20206;-69
2022/03/30 04:15:03;;;;;;;32.20;17.17;;;9.70;99.90;;;;;;4922078;29;20209;-70
2022/03/30 04:17:29;;;;;;;32.83;16.77;;;9.70;99.90;;;;;;4928402;29;20652;-69
2022/03/30 04:19:56;;;;;;;33.77;16.87;;;9.60;99.90;;;;;;4930257;29;20675;-69
2022/03/30 04:22:23;;;;;;;35.37;17.23;;;9.50;99.90;;;;;;4929468;29;20204;-69
2022/03/30 04:24:49;;;;;;;35.33;16.90;;;9.40;99.90;;;;;;4929924;29;20340;-68
2022/03/30 04:27:16;;;;;;;37.30;17.07;;;9.30;99.90;;;;;;4932687;29;20215;-69
2022/03/30 04:29:43;;;;;;;36.00;17.27;;;9.20;99.90;;;;;;4924507;29;20571;-68
2022/03/30 04:32:09;;;;;;;35.13;16.87;;;9.10;99.90;;;;;;4928806;29;20679;-68
2022/03/30 04:34:36;;;;;;;33.23;16.50;;;9.00;99.90;;;;;;4923479;29;20247;-68
2022/03/30 04:37:03;;;;;;;34.87;17.97;;;8.90;99.90;;;;;;4923353;29;20220;-67
2022/03/30 04:39:30;;;;;;;38.50;17.40;;;8.80;99.90;;;;;;4921362;29;20218;-67
2022/03/30 04:41:56;;;;;;;39.93;18.23;;;8.70;99.90;;;;;;4924459;29;20685;-67
2022/03/30 04:44:25;;;;;;;34.03;16.60;;;8.60;99.90;;;;;;4922650;29;20242;-67
2022/03/30 04:46:52;;;;;;;37.70;17.67;;;8.50;99.90;;;;;;4925430;29;20223;-67
2022/03/30 04:49:19;;;;;;;36.27;17.90;;;8.50;99.90;;;;;;4925033;29;20606;-68
2022/03/30 04:51:46;;;;;;;38.13;17.17;;;8.40;99.90;;;;;;4912984;29;20213;-68
2022/03/30 04:54:12;;;;;;;38.93;17.53;;;8.20;99.90;;;;;;4919760;29;20207;-68
2022/03/30 04:56:39;;;;;;;37.67;18.57;;;8.20;99.90;;;;;;4930962;29;20226;-68
2022/03/30 04:59:06;;;;;;;37.30;18.67;;;8.20;99.90;;;;;;4932029;29;20203;-68
2022/03/30 05:01:32;;;;;;;35.80;19.10;;;8.20;99.90;;;;;;4928120;29;20216;-68
2022/03/30 05:03:59;;;;;;;43.23;20.47;;;8.30;99.90;;;;;;4924934;29;20711;-69
2022/03/30 05:06:26;;;;;;;41.60;19.90;;;8.40;99.90;;;;;;4924138;29;20241;-69
2022/03/30 05:08:53;;;;;;;45.40;19.87;;;8.40;99.90;;;;;;4928248;29;20211;-69
2022/03/30 05:11:19;;;;;;;42.77;18.83;;;8.40;99.90;;;;;;4907347;29;20737;-69
2022/03/30 05:13:46;;;;;;;46.53;19.70;;;8.40;99.90;;;;;;4910690;29;20227;-69
2022/03/30 05:16:13;;;;;;;41.10;19.27;;;8.40;99.90;;;;;;4917596;29;20482;-70
2022/03/30 05:18:40;;;;;;;43.67;19.73;;;8.20;99.90;;;;;;4923854;29;20574;-70
2022/03/30 05:21:06;;;;;;;45.27;20.07;;;8.20;99.90;;;;;;4926126;29;20204;-70
2022/03/30 05:23:36;;;;;;;46.53;20.00;;;8.10;99.90;;;;;;4925242;29;20244;-70
2022/03/30 05:26:03;;;;;;;44.30;20.07;;;8.30;99.90;;;;;;4924313;29;20239;-69
2022/03/30 05:28:30;;;;;;;45.07;19.93;;;8.40;99.90;;;;;;4927295;29;20279;-70
2022/03/30 05:30:57;;;;;;;43.80;20.87;;;8.50;99.90;;;;;;4929234;29;20198;-70
2022/03/30 05:33:24;;;;;;;50.30;20.57;;;8.50;99.90;;;;;;4930154;29;20207;-70
2022/03/30 05:35:51;;;;;;;41.70;20.17;;;8.40;99.90;;;;;;4923449;29;20385;-71
2022/03/30 05:38:17;;;;;;;45.17;19.50;;;8.30;99.90;;;;;;4931003;29;20216;-70
2022/03/30 05:40:44;;;;;;;42.13;19.87;;;8.20;99.90;;;;;;4923196;29;20207;-71
2022/03/30 05:43:11;;;;;;;44.17;20.30;;;8.20;99.90;;;;;;4928054;29;20917;-71
2022/03/30 05:45:38;;;;;;;46.37;20.87;;;8.20;99.90;;;;;;4912983;29;20223;-70
2022/03/30 05:48:05;;;;;;;48.83;19.20;;;8.20;99.90;;;;;;4929289;29;20197;-70
2022/03/30 05:50:32;;;;;;;48.33;21.47;;;8.10;99.90;;;;;;4921411;29;20215;-70
2022/03/30 05:52:59;;;;;;;48.97;20.47;;;8.30;99.90;;;;;;4920962;29;20221;-69
2022/03/30 05:55:25;;;;;;;47.20;20.80;;;8.30;99.90;;;;;;4925651;29;20230;-70
2022/03/30 05:57:52;;;;;;;43.73;19.73;;;8.50;99.90;;;;;;4926396;29;20198;-68
2022/03/30 06:00:19;;;;;;;50.87;21.40;;;8.60;99.90;;;;;;4908986;29;20206;-68
2022/03/30 06:02:46;;;;;;;41.63;20.00;;;8.60;99.90;;;;;;4922814;29;20208;-68
2022/03/30 06:05:12;;;;;;;44.57;19.77;;;8.60;99.90;;;;;;4926549;29;20257;-66
2022/03/30 06:07:39;;;;;;;50.63;21.77;;;8.60;99.90;;;;;;4923018;29;20214;-67
2022/03/30 06:10:07;;;;;;;47.20;20.73;;;8.60;99.90;;;;;;4923393;29;20285;-66
2022/03/30 06:12:33;;;;;;;43.50;20.17;;;8.60;99.90;;;;;;4924941;29;20208;-66
2022/03/30 06:15:00;;;;;;;44.50;20.40;;;8.60;99.90;;;;;;4919687;29;20200;-66
2022/03/30 06:17:32;;;;;;;49.17;20.07;;;8.60;99.90;;;;;;4925931;29;20243;-65
2022/03/30 06:19:59;;;;;;;41.43;19.23;;;8.60;99.90;;;;;;4925495;29;20207;-65
2022/03/30 06:22:29;;;;;;;45.40;19.57;;;8.60;99.90;;;;;;4908323;29;20208;-66
2022/03/30 06:24:56;;;;;;;42.33;19.63;;;8.60;99.90;;;;;;4927033;29;20279;-66
2022/03/30 06:27:23;;;;;;;43.83;19.63;;;8.50;99.90;;;;;;4929659;29;20229;-66
2022/03/30 06:29:52;;;;;;;40.00;19.23;;;8.40;99.90;;;;;;4908894;29;20298;-66
2022/03/30 06:32:19;;;;;;;45.60;19.57;;;8.50;99.90;;;;;;4927859;29;20200;-66
2022/03/30 06:34:46;;;;;;;39.43;18.77;;;8.50;99.90;;;;;;4924527;29;20210;-66
2022/03/30 06:37:13;;;;;;;39.47;19.30;;;8.50;99.90;;;;;;4920276;29;20235;-65
2022/03/30 06:39:39;;;;;;;38.77;18.67;;;8.50;99.90;;;;;;4922888;29;20206;-66
2022/03/30 06:42:10;;;;;;;38.67;18.43;;;8.50;99.90;;;;;;4927359;29;20203;-66
2022/03/30 06:44:37;;;;;;;39.63;17.63;;;8.40;99.90;;;;;;4931440;29;20282;-66
2022/03/30 06:47:04;;;;;;;37.83;18.30;;;8.50;99.90;;;;;;4926754;29;20215;-65
2022/03/30 06:49:31;;;;;;;41.10;18.80;;;8.40;99.90;;;;;;4924736;29;20219;-66
2022/03/30 06:51:57;;;;;;;40.40;18.63;;;8.50;99.90;;;;;;4920081;29;20206;-66
2022/03/30 06:54:24;;;;;;;42.43;19.33;;;8.60;99.90;;;;;;4924461;29;20205;-66
2022/03/30 06:56:51;;;;;;;41.00;18.83;;;8.70;99.90;;;;;;4927484;29;20727;-67
2022/03/30 06:59:18;;;;;;;36.80;18.93;;;8.80;99.90;;;;;;4921086;29;20683;-68
2022/03/30 07:01:45;;;;;;;40.47;18.30;;;8.70;99.90;;;;;;4907982;29;20223;-68
2022/03/30 07:04:12;;;;;;;34.33;17.67;;;8.80;99.90;;;;;;4922440;29;20229;-68
2022/03/30 07:10:15;;;;;;;39.50;18.43;;;8.90;99.90;;;;;;4924462;29;20231;-69
2022/03/30 07:12:11;;;;;;;36.83;18.43;;;9.10;99.90;;;;;;4915955;29;20200;-67
2022/03/30 07:14:38;;;;;;;39.23;18.37;;;9.20;99.90;;;;;;4920830;29;20221;-68
2022/03/30 07:17:04;;;;;;;38.43;18.47;;;9.30;99.90;;;;;;4924900;29;20510;-68
2022/03/30 07:19:31;;;;;;;36.80;17.67;;;9.30;99.90;;;;;;4920517;29;20256;-68
2022/03/30 07:21:58;;;;;;;34.20;16.77;;;9.30;99.90;;;;;;4925849;29;20583;-67
2022/03/30 07:24:25;;;;;;;32.43;15.67;;;9.30;99.90;;;;;;4925291;29;20722;-68
2022/03/30 07:26:51;;;;;;;33.90;16.70;;;9.30;99.90;;;;;;4920475;29;20224;-67
2022/03/30 07:29:18;;;;;;;34.23;17.13;;;9.20;99.90;;;;;;4918441;29;20208;-68
2022/03/30 07:31:45;;;;;;;33.23;17.17;;;9.20;99.90;;;;;;4932214;29;20200;-68
2022/03/30 07:34:14;;;;;;;30.47;16.07;;;9.10;99.90;;;;;;4931727;29;20209;-68
2022/03/30 07:36:41;;;;;;;37.20;17.63;;;9.10;99.90;;;;;;4919787;29;20517;-68
2022/03/30 07:39:07;;;;;;;35.60;18.03;;;9.10;99.90;;;;;;4928818;29;20204;-70
2022/03/30 07:41:34;;;;;;;33.63;16.90;;;9.30;99.90;;;;;;4929365;29;20210;-68
2022/03/30 07:44:02;;;;;;;32.30;16.13;;;9.30;99.90;;;;;;4922903;29;20718;-69
2022/03/30 07:46:29;;;;;;;31.80;16.90;;;9.40;99.90;;;;;;4930142;29;20260;-68
2022/03/30 07:48:56;;;;;;;34.50;17.63;;;9.40;99.90;;;;;;4927964;29;20226;-68
2022/03/30 07:51:23;;;;;;;35.13;17.43;;;9.40;99.90;;;;;;4932074;29;20206;-68
2022/03/30 07:53:49;;;;;;;34.27;16.50;;;9.40;99.90;;;;;;4929012;29;20560;-68
2022/03/30 07:56:16;;;;;;;35.57;17.10;;;9.30;99.90;;;;;;4929826;29;20230;-67
2022/03/30 07:58:43;;;;;;;34.03;16.53;;;9.40;99.90;;;;;;4927987;29;20213;-67
2022/03/30 08:01:11;;;;;;;29.57;15.20;;;9.30;99.90;;;;;;4926337;29;20256;-67
2022/03/30 08:03:37;;;;;;;30.70;15.83;;;9.40;99.90;;;;;;4930468;29;20678;-68
2022/03/30 08:06:04;;;;;;;31.57;16.47;;;9.30;99.90;;;;;;4930205;28;20225;-68
2022/03/30 08:08:31;;;;;;;31.10;16.23;;;9.20;99.90;;;;;;4922735;29;20216;-68
2022/03/30 08:10:57;;;;;;;31.57;16.27;;;9.30;99.90;;;;;;4931861;29;20216;-68
2022/03/30 08:13:24;;;;;;;30.50;16.23;;;9.40;99.90;;;;;;4930775;29;20229;-68
2022/03/30 08:15:51;;;;;;;31.33;15.57;;;9.40;99.90;;;;;;4927501;29;20224;-68
2022/03/30 08:18:18;;;;;;;29.47;15.20;;;9.30;99.90;;;;;;4932123;29;20214;-67
2022/03/30 08:23:30;;;;;;;31.00;16.00;;;9.50;99.90;;;;;;4929692;29;20208;-67
2022/03/30 08:25:57;;;;;;;29.57;15.17;;;9.50;99.90;;;;;;4926319;29;20461;-67
2022/03/30 08:28:24;;;;;;;32.93;14.60;;;9.60;99.90;;;;;;4930372;29;20205;-68
2022/03/30 08:30:51;;;;;;;33.47;15.87;;;9.50;99.90;;;;;;4907540;29;20206;-68
2022/03/30 08:33:23;;;;;;;29.47;14.80;;;9.60;99.90;;;;;;4924792;29;20631;-69
2022/03/30 08:35:50;;;;;;;31.67;14.90;;;9.80;99.90;;;;;;4925483;29;20221;-68
2022/03/30 08:38:17;;;;;;;24.17;13.80;;;9.80;99.90;;;;;;4924814;29;20222;-68
2022/03/30 08:40:44;;;;;;;26.23;13.87;;;9.90;99.90;;;;;;4923843;29;20529;-68
2022/03/30 08:43:11;;;;;;;28.13;13.97;;;10.00;99.90;;;;;;4925898;29;20300;-68
2022/03/30 08:45:40;;;;;;;25.13;14.27;;;9.90;99.90;;;;;;4923733;29;20226;-69
2022/03/30 08:48:07;;;;;;;27.13;14.37;;;9.90;99.90;;;;;;4923814;29;20207;-69
2022/03/30 08:50:34;;;;;;;26.87;14.53;;;10.00;99.90;;;;;;4924389;29;20206;-68
2022/03/30 08:53:05;;;;;;;26.70;13.33;;;10.00;99.90;;;;;;4925499;29;20554;-68
2022/03/30 08:55:33;;;;;;;28.43;14.10;;;10.00;99.90;;;;;;4926100;29;20229;-68
2022/03/30 08:58:00;;;;;;;29.57;13.90;;;10.10;99.90;;;;;;4928579;29;20200;-69
2022/03/30 09:00:26;;;;;;;25.73;14.87;;;10.30;99.90;;;;;;4930381;29;20199;-69
2022/03/30 09:03:03;;;;;;;26.70;14.73;;;10.40;99.90;;;;;;4922949;29;20597;-69
2022/03/30 09:05:33;;;;;;;26.17;13.83;;;10.50;99.90;;;;;;4930335;29;20229;-69
2022/03/30 09:08:15;;;;;;;23.20;12.47;;;10.60;99.90;;;;;;4925565;29;20571;-69
2022/03/30 09:10:44;;;;;;;22.60;12.10;;;10.50;99.90;;;;;;4928782;29;20206;-69
2022/03/30 09:13:14;;;;;;;20.93;12.30;;;10.70;99.90;;;;;;4925989;29;20210;-69
2022/03/30 09:15:41;;;;;;;23.83;12.90;;;10.80;99.90;;;;;;4924705;29;20222;-69
2022/03/30 09:18:14;;;;;;;24.73;13.00;;;11.00;99.90;;;;;;4925767;29;20202;-69
2022/03/30 09:20:43;;;;;;;23.07;12.10;;;11.00;99.90;;;;;;4922908;29;20702;-70
2022/03/30 09:23:13;;;;;;;22.50;12.73;;;11.10;99.90;;;;;;4921437;29;20622;-70
2022/03/30 09:25:49;;;;;;;24.40;11.63;;;11.20;99.90;;;;;;4924831;29;21287;-71
2022/03/30 09:28:21;;;;;;;20.63;11.87;;;11.20;99.90;;;;;;4926411;29;20210;-72
2022/03/30 09:30:49;;;;;;;23.93;12.93;;;11.10;99.90;;;;;;4920791;29;20293;-67
2022/03/30 09:33:21;;;;;;;20.83;12.10;;;10.90;99.90;;;;;;4925155;29;20203;-71
2022/03/30 09:35:48;;;;;;;21.33;12.13;;;10.80;99.90;;;;;;4921961;29;20226;-70
2022/03/30 09:38:23;;;;;;;23.57;12.03;;;10.70;99.90;;;;;;4923850;29;20221;-71
2022/03/30 09:41:04;;;;;;;22.37;11.67;;;10.60;99.90;;;;;;4921931;29;21343;-71
2022/03/30 09:43:34;;;;;;;21.73;12.07;;;10.50;99.90;;;;;;4925308;29;20216;-71
2022/03/30 09:46:08;;;;;;;22.00;11.53;;;10.50;99.90;;;;;;4923316;29;20582;-71
2022/03/30 09:48:49;;;;;;;19.77;11.10;;;10.50;99.90;;;;;;4923803;29;20202;-71
2022/03/30 09:51:18;;;;;;;19.87;11.53;;;10.50;99.90;;;;;;4924512;29;20258;-71
2022/03/30 09:53:46;;;;;;;21.67;11.60;;;10.50;99.90;;;;;;4924602;29;20199;-72
2022/03/30 09:56:18;;;;;;;18.73;11.60;;;10.70;99.90;;;;;;4907634;29;20227;-72
2022/03/30 09:58:46;;;;;;;19.53;11.37;;;10.80;99.90;;;;;;4921744;29;20204;-73
2022/03/30 10:01:22;;;;;;;19.07;11.23;;;11.00;99.90;;;;;;4924188;29;20211;-72
2022/03/30 10:03:53;;;;;;;18.53;10.80;;;11.20;99.90;;;;;;4923050;29;20203;-72
2022/03/30 10:06:22;;;;;;;18.60;10.80;;;11.40;99.90;;;;;;4921461;29;20226;-71
2022/03/30 10:08:51;;;;;;;19.50;11.53;;;11.70;99.90;;;;;;4924270;29;20214;-72
2022/03/30 10:11:20;;;;;;;17.27;10.63;;;12.00;99.90;;;;;;4925188;29;20209;-72
2022/03/30 10:13:55;;;;;;;21.13;10.50;;;12.10;99.90;;;;;;4903576;29;20210;-72
2022/03/30 10:16:40;;;;;;;22.53;11.07;;;12.10;99.90;;;;;;4924557;29;20241;-72
2022/03/30 10:19:08;;;;;;;21.40;11.07;;;12.20;99.90;;;;;;4928700;29;20466;-71
2022/03/30 10:21:39;;;;;;;18.50;10.87;;;12.20;99.90;;;;;;4925372;29;20214;-72
2022/03/30 10:24:40;;;;;;;20.37;11.33;;;12.20;99.90;;;;;;4930854;29;20201;-72
2022/03/30 10:27:15;;;;;;;19.17;11.43;;;12.10;99.90;;;;;;4907552;29;20707;-71
2022/03/30 10:29:54;;;;;;;22.37;10.27;;;12.30;99.90;;;;;;4924002;29;20202;-71
2022/03/30 10:32:23;;;;;;;17.27;10.27;;;12.40;99.90;;;;;;4924027;29;20618;-71
2022/03/30 10:35:04;;;;;;;15.70;9.50;;;12.70;99.90;;;;;;4923101;29;20403;-73
2022/03/30 10:37:38;;;;;;;17.47;10.07;;;12.90;99.90;;;;;;4925763;29;20196;-76
2022/03/30 10:40:08;;;;;;;17.97;9.30;;;13.00;99.90;;;;;;4910203;29;20200;-79
2022/03/30 10:42:47;;;;;;;15.57;9.27;;;13.00;99.90;;;;;;4910073;29;20203;-80
2022/03/30 10:45:39;;;;;;;14.47;9.33;;;13.10;99.90;;;;;;4924913;29;20767;-78
2022/03/30 10:48:18;;;;;;;16.37;9.13;;;13.60;99.90;;;;;;4917591;29;20658;-80
2022/03/30 10:50:48;;;;;;;14.83;9.20;;;13.80;99.90;;;;;;4927627;29;20205;-77
2022/03/30 10:53:30;;;;;;;16.03;9.77;;;14.30;99.90;;;;;;4926361;29;20209;-74
2022/03/30 10:56:08;;;;;;;13.93;8.53;;;14.70;99.90;;;;;;4927344;29;20237;-73
2022/03/30 10:58:36;;;;;;;14.67;8.80;;;15.40;99.90;;;;;;4923970;29;20574;-72
2022/03/30 11:01:25;;;;;;;14.67;8.47;;;15.80;99.90;;;;;;4910624;29;20203;-72
2022/03/30 11:03:59;;;;;;;14.70;8.30;;;15.90;99.90;;;;;;4924772;29;20237;-69
2022/03/30 11:06:27;;;;;;;13.00;7.80;;;15.40;99.90;;;;;;4928536;29;20233;-73
2022/03/30 11:08:59;;;;;;;14.50;8.70;;;14.90;99.90;;;;;;4929096;29;20205;-71
2022/03/30 11:11:29;;;;;;;16.83;8.43;;;14.80;99.90;;;;;;4927414;29;20199;-71
2022/03/30 11:14:50;;;;;;;17.23;9.23;;;14.50;99.90;;;;;;4925915;29;20382;-72
2022/03/30 11:17:40;;;;;;;14.63;8.57;;;14.60;99.90;;;;;;4888542;29;20234;-72
2022/03/30 11:20:09;;;;;;;15.07;8.80;;;14.50;99.90;;;;;;4923279;29;20644;-73
2022/03/30 11:22:37;;;;;;;16.30;9.30;;;14.10;99.90;;;;;;4907745;29;21543;-71
2022/03/30 11:25:19;;;;;;;15.17;8.67;;;13.80;99.90;;;;;;4923291;29;20230;-72
2022/03/30 11:27:59;;;;;;;17.63;8.73;;;13.60;99.90;;;;;;4928061;29;20719;-74
2022/03/30 11:30:30;;;;;;;15.20;9.23;;;13.70;99.90;;;;;;4929541;29;20196;-73
2022/03/30 11:33:12;;;;;;;15.27;9.10;;;13.50;99.90;;;;;;4921798;29;20203;-72
2022/03/30 11:35:42;;;;;;;16.13;8.60;;;13.90;99.90;;;;;;4925801;29;20226;-74
2022/03/30 11:38:21;;;;;;;13.70;8.87;;;14.00;99.90;;;;;;4924158;29;20211;-71
2022/03/30 11:40:49;;;;;;;12.40;8.17;;;14.40;99.90;;;;;;4922082;29;20212;-72
2022/03/30 11:43:19;;;;;;;12.83;7.93;;;14.70;99.90;;;;;;4929303;29;20244;-72
2022/03/30 11:46:03;;;;;;;14.83;8.20;;;14.80;99.90;;;;;;4930411;29;20226;-70
2022/03/30 11:48:39;;;;;;;12.77;7.37;;;14.40;99.90;;;;;;4924043;29;20210;-70
2022/03/30 11:51:15;;;;;;;12.97;7.57;;;14.40;99.90;;;;;;4906147;29;20688;-71
2022/03/30 11:53:42;;;;;;;12.23;7.70;;;14.50;99.90;;;;;;4925398;29;20202;-70
2022/03/30 11:56:09;;;;;;;15.17;7.37;;;14.80;99.90;;;;;;4925125;29;20226;-68
2022/03/30 11:58:38;;;;;;;12.77;7.73;;;15.00;99.90;;;;;;4928997;29;20464;-70
2022/03/30 12:01:07;;;;;;;12.63;7.33;;;15.20;99.90;;;;;;4922991;29;20202;-71
2022/03/30 12:03:35;;;;;;;11.20;7.37;;;15.40;99.90;;;;;;4926964;29;20213;-70
2022/03/30 12:06:04;;;;;;;16.13;7.57;;;15.90;99.90;;;;;;4927468;29;20249;-69
2022/03/30 12:08:46;;;;;;;12.67;7.60;;;16.10;99.90;;;;;;4928261;29;20238;-70
2022/03/30 12:11:14;;;;;;;13.10;7.77;;;16.20;99.90;;;;;;4925562;29;20207;-70
2022/03/30 12:13:41;;;;;;;12.57;7.97;;;15.80;99.90;;;;;;4924587;29;20604;-71
2022/03/30 12:16:11;;;;;;;14.87;7.83;;;15.20;99.90;;;;;;4926893;29;20218;-72
2022/03/30 12:18:42;;;;;;;14.93;8.10;;;15.00;99.90;;;;;;4925924;29;20199;-68
2022/03/30 12:21:11;;;;;;;11.70;7.13;;;14.50;99.90;;;;;;4921462;29;21897;-68
2022/03/30 12:23:52;;;;;;;11.77;7.23;;;14.10;99.90;;;;;;4927611;29;20197;-70
2022/03/30 12:26:39;;;;;;;12.47;7.17;;;14.00;99.90;;;;;;4912716;29;20312;-70
2022/03/30 12:29:06;;;;;;;14.37;7.80;;;14.10;99.90;;;;;;4925321;29;20651;-69
2022/03/30 12:32:01;;;;;;;13.03;6.77;;;14.20;99.90;;;;;;4925187;29;20699;-72
2022/03/30 12:34:33;;;;;;;12.27;6.80;;;14.60;99.90;;;;;;4919885;29;20201;-68
2022/03/30 12:37:08;;;;;;;12.43;7.30;;;15.10;99.90;;;;;;4926130;29;20239;-72
2022/03/30 12:39:46;;;;;;;9.63;6.63;;;15.00;99.90;;;;;;4926516;29;20198;-71
2022/03/30 12:42:26;;;;;;;13.50;7.17;;;14.90;99.90;;;;;;4926168;29;20304;-69
2022/03/30 12:45:00;;;;;;;10.73;6.80;;;14.90;99.90;;;;;;4920615;29;20299;-72
2022/03/30 12:47:32;;;;;;;10.57;7.03;;;15.00;99.90;;;;;;4908822;29;20229;-74
2022/03/30 12:50:05;;;;;;;12.87;7.03;;;15.00;99.90;;;;;;4926332;29;20195;-72
2022/03/30 12:52:40;;;;;;;14.57;8.30;;;15.30;99.90;;;;;;4923892;29;20308;-72